createdAt,value
2018-07-13T00:00:24.177Z,7.03
2018-07-13T00:02:51.904Z,7.10
2018-07-13T00:05:19.592Z,8.07
2018-07-13T00:07:47.274Z,7.97
2018-07-13T00:10:15.009Z,7.77
2018-07-13T00:12:42.661Z,7.70
2018-07-13T00:15:11.374Z,7.43
2018-07-13T00:17:39.232Z,7.47
2018-07-13T00:20:07.173Z,7.37
2018-07-13T00:22:34.777Z,7.83
2018-07-13T00:25:02.487Z,8.17
2018-07-13T00:27:30.096Z,7.27
2018-07-13T00:29:57.704Z,7.63
2018-07-13T00:32:25.280Z,7.60
2018-07-13T00:34:52.885Z,8.00
2018-07-13T00:37:20.488Z,7.40
2018-07-13T00:39:48.128Z,7.90
2018-07-13T00:42:15.729Z,7.23
2018-07-13T00:44:43.299Z,7.70
2018-07-13T00:47:10.984Z,7.33
2018-07-13T00:49:38.713Z,8.53
2018-07-13T00:52:06.294Z,7.60
2018-07-13T00:54:33.968Z,7.47
2018-07-13T00:57:01.631Z,7.70
2018-07-13T00:59:29.291Z,8.10
2018-07-13T01:01:56.961Z,8.07
2018-07-13T01:04:24.611Z,8.23
2018-07-13T01:06:52.386Z,7.97
2018-07-13T01:09:20.030Z,7.87
2018-07-13T01:11:47.630Z,8.57
2018-07-13T01:14:15.258Z,7.47
2018-07-13T01:16:42.846Z,7.77
2018-07-13T01:19:10.479Z,7.63
2018-07-13T01:21:38.170Z,8.30
2018-07-13T01:24:05.897Z,7.20
2018-07-13T01:26:33.490Z,7.97
2018-07-13T01:29:01.135Z,8.20
2018-07-13T01:31:28.800Z,7.87
2018-07-13T01:33:56.439Z,7.70
2018-07-13T01:36:24.018Z,7.70
2018-07-13T01:38:51.690Z,8.00
2018-07-13T01:41:19.320Z,7.30
2018-07-13T01:43:47.014Z,8.40
2018-07-13T01:46:14.674Z,8.67
2018-07-13T01:48:42.313Z,7.20
2018-07-13T01:51:09.893Z,8.60
2018-07-13T01:53:37.562Z,8.40
2018-07-13T01:56:05.164Z,8.80
2018-07-13T01:58:32.779Z,8.90
2018-07-13T02:01:00.455Z,9.03
2018-07-13T02:03:28.095Z,8.40
2018-07-13T02:05:55.668Z,8.67
2018-07-13T02:08:23.323Z,8.10
2018-07-13T02:10:50.964Z,8.10
2018-07-13T02:13:18.586Z,8.17
2018-07-13T02:15:46.229Z,8.50
2018-07-13T02:18:13.857Z,8.10
2018-07-13T02:20:41.469Z,8.20
2018-07-13T02:23:09.099Z,8.30
2018-07-13T02:25:36.762Z,7.93
2018-07-13T02:28:04.397Z,8.23
2018-07-13T02:30:31.980Z,8.37
2018-07-13T02:32:59.640Z,7.80
2018-07-13T02:35:27.311Z,7.93
2018-07-13T02:37:54.893Z,8.00
2018-07-13T02:40:22.464Z,8.10
2018-07-13T02:42:50.104Z,8.13
2018-07-13T02:45:17.739Z,8.50
2018-07-13T02:47:45.419Z,8.90
2018-07-13T02:50:13.057Z,7.90
2018-07-13T02:52:40.743Z,8.07
2018-07-13T02:55:08.348Z,8.53
2018-07-13T02:57:35.953Z,8.50
2018-07-13T03:00:03.670Z,8.97
2018-07-13T03:02:31.268Z,8.60
2018-07-13T03:04:58.884Z,7.83
2018-07-13T03:07:26.493Z,8.30
2018-07-13T03:09:54.049Z,8.77
2018-07-13T03:12:21.708Z,8.30
2018-07-13T03:14:49.273Z,7.97
2018-07-13T03:17:16.889Z,8.33
2018-07-13T03:19:44.511Z,7.77
2018-07-13T03:22:12.259Z,8.73
2018-07-13T03:24:39.828Z,8.10
2018-07-13T03:27:07.555Z,9.00
2018-07-13T03:29:35.150Z,9.00
2018-07-13T03:32:02.911Z,8.70
2018-07-13T03:34:30.503Z,9.00
2018-07-13T03:36:58.134Z,8.70
2018-07-13T03:39:25.736Z,9.40
2018-07-13T03:41:53.391Z,8.70
2018-07-13T03:44:21.031Z,9.17
2018-07-13T03:46:48.712Z,8.70
2018-07-13T03:49:16.353Z,8.60
2018-07-13T03:51:44.022Z,8.80
2018-07-13T03:54:11.747Z,9.00
2018-07-13T03:56:39.345Z,8.10
2018-07-13T03:59:07.004Z,8.30
2018-07-13T04:01:34.683Z,8.63
2018-07-13T04:04:02.369Z,8.97
2018-07-13T04:06:30.048Z,8.87
2018-07-13T04:08:57.671Z,9.00
2018-07-13T04:11:25.290Z,9.67
2018-07-13T04:13:52.902Z,9.57
2018-07-13T04:16:20.527Z,9.27
2018-07-13T04:18:48.241Z,9.63
2018-07-13T04:21:15.917Z,8.57
2018-07-13T04:23:43.587Z,10.13
2018-07-13T04:26:11.384Z,9.70
2018-07-13T04:28:39.213Z,9.50
2018-07-13T04:31:06.811Z,10.23
2018-07-13T04:33:34.486Z,10.33
2018-07-13T04:36:02.146Z,8.60
2018-07-13T04:38:29.803Z,9.70
2018-07-13T04:40:57.511Z,9.37
2018-07-13T04:43:25.132Z,8.63
2018-07-13T04:45:53.039Z,10.83
2018-07-13T04:48:20.991Z,9.47
2018-07-13T04:50:48.903Z,9.30
2018-07-13T04:53:16.611Z,9.83
2018-07-13T04:55:44.308Z,9.60
2018-07-13T04:58:12.032Z,9.47
2018-07-13T05:00:39.747Z,8.73
2018-07-13T05:03:07.377Z,9.67
2018-07-13T05:05:35.142Z,8.93
2018-07-13T05:08:02.799Z,9.50
2018-07-13T05:10:30.548Z,9.60
2018-07-13T05:12:58.217Z,8.20
2018-07-13T05:15:25.925Z,9.00
2018-07-13T05:17:53.568Z,7.90
2018-07-13T05:20:21.193Z,9.83
2018-07-13T05:22:48.870Z,9.40
2018-07-13T05:25:16.628Z,8.10
2018-07-13T05:27:44.304Z,7.73
2018-07-13T05:30:11.974Z,7.13
2018-07-13T05:32:39.632Z,7.10
2018-07-13T05:35:08.617Z,7.80
2018-07-13T05:37:36.511Z,7.10
2018-07-13T05:40:05.253Z,8.03
2018-07-13T05:42:33.426Z,7.73
2018-07-13T05:45:01.544Z,9.47
2018-07-13T05:47:29.235Z,8.53
2018-07-13T05:49:56.911Z,9.27
2018-07-13T05:52:24.608Z,8.30
2018-07-13T05:54:52.328Z,8.80
2018-07-13T05:57:21.233Z,8.97
2018-07-13T05:59:49.018Z,8.73
2018-07-13T06:02:16.709Z,9.00
2018-07-13T06:04:44.373Z,9.63
2018-07-13T06:07:12.112Z,9.60
2018-07-13T06:09:39.831Z,8.83
2018-07-13T06:12:07.739Z,8.17
2018-07-13T06:14:35.470Z,8.97
2018-07-13T06:17:03.083Z,8.50
2018-07-13T06:19:30.707Z,8.37
2018-07-13T06:21:58.366Z,7.93
2018-07-13T06:24:25.988Z,7.40
2018-07-13T06:26:53.599Z,8.10
2018-07-13T06:29:21.301Z,7.60
2018-07-13T06:31:49.029Z,7.50
2018-07-13T06:34:16.679Z,6.80
2018-07-13T06:36:44.294Z,7.30
2018-07-13T06:39:12.905Z,8.23
2018-07-13T06:41:40.535Z,7.63
2018-07-13T06:44:08.177Z,7.53
2018-07-13T06:46:36.092Z,7.90
2018-07-13T06:49:03.736Z,7.33
2018-07-13T06:51:31.324Z,7.10
2018-07-13T06:53:58.985Z,7.33
2018-07-13T06:56:26.582Z,7.40
2018-07-13T06:59:07.068Z,8.30
2018-07-13T07:01:34.777Z,8.23
2018-07-13T07:04:37.960Z,8.27
2018-07-13T07:07:06.618Z,7.60
2018-07-13T07:09:34.377Z,9.00
2018-07-13T07:13:09.433Z,8.27
2018-07-13T07:15:37.345Z,8.50
2018-07-13T07:18:05.015Z,7.43
2018-07-13T07:20:32.679Z,8.87
2018-07-13T07:23:00.335Z,8.70
2018-07-13T07:25:28.018Z,7.60
2018-07-13T07:27:55.651Z,8.60
2018-07-13T07:30:23.389Z,8.40
2018-07-13T07:32:51.051Z,8.23
2018-07-13T07:35:18.741Z,7.40
2018-07-13T07:37:46.479Z,8.10
2018-07-13T07:40:14.131Z,7.67
2018-07-13T07:42:41.881Z,7.50
2018-07-13T07:45:09.595Z,8.43
2018-07-13T07:47:37.262Z,9.07
2018-07-13T07:50:05.072Z,7.37
2018-07-13T07:52:32.680Z,7.83
2018-07-13T07:55:00.418Z,7.80
2018-07-13T07:57:28.123Z,7.20
2018-07-13T07:59:55.755Z,7.30
2018-07-13T08:02:23.437Z,6.80
2018-07-13T08:04:51.081Z,6.63
2018-07-13T08:07:18.882Z,6.37
2018-07-13T08:09:46.490Z,6.00
2018-07-13T08:12:14.106Z,6.00
2018-07-13T08:14:41.798Z,6.33
2018-07-13T08:17:09.493Z,6.57
2018-07-13T08:19:37.215Z,6.93
2018-07-13T08:22:09.494Z,6.67
2018-07-13T08:24:37.297Z,6.17
2018-07-13T08:27:05.403Z,5.80
2018-07-13T08:29:34.902Z,6.67
2018-07-13T08:32:02.501Z,6.30
2018-07-13T08:34:30.170Z,5.30
2018-07-13T08:36:57.862Z,5.30
2018-07-13T08:39:25.495Z,5.10
2018-07-13T08:41:53.197Z,5.20
2018-07-13T08:44:20.902Z,5.13
2018-07-13T08:46:48.614Z,5.43
2018-07-13T08:49:16.289Z,5.40
2018-07-13T08:51:44.115Z,6.07
2018-07-13T08:54:11.760Z,6.30
2018-07-13T08:56:39.417Z,5.60
2018-07-13T08:59:07.112Z,5.20
2018-07-13T09:01:34.749Z,4.90
2018-07-13T09:04:02.482Z,5.13
2018-07-13T09:06:30.137Z,5.00
2018-07-13T09:08:57.766Z,5.30
2018-07-13T09:11:25.404Z,5.20
2018-07-13T09:13:53.068Z,5.00
2018-07-13T09:16:20.692Z,5.00
2018-07-13T09:18:48.358Z,5.07
2018-07-13T09:21:16.063Z,5.10
2018-07-13T09:23:43.732Z,7.13
2018-07-13T09:26:11.389Z,4.83
2018-07-13T09:28:39.054Z,8.57
2018-07-13T09:31:06.706Z,8.27
2018-07-13T09:33:34.357Z,7.30
2018-07-13T09:36:02.026Z,4.90
2018-07-13T09:38:29.773Z,5.00
2018-07-13T09:40:57.389Z,4.80
2018-07-13T09:43:25.007Z,4.70
2018-07-13T09:45:52.617Z,5.53
2018-07-13T09:48:20.234Z,5.43
2018-07-13T09:50:47.826Z,5.77
2018-07-13T09:53:15.571Z,5.57
2018-07-13T09:55:43.266Z,6.50
2018-07-13T09:58:10.843Z,5.73
2018-07-13T10:00:43.840Z,4.90
2018-07-13T10:03:11.441Z,4.80
2018-07-13T10:05:39.098Z,3.97
2018-07-13T10:08:06.719Z,4.70
2018-07-13T10:10:34.323Z,4.57
2018-07-13T10:13:02.021Z,4.50
2018-07-13T10:15:29.688Z,5.30
2018-07-13T10:17:57.360Z,4.53
2018-07-13T10:20:25.079Z,4.97
2018-07-13T10:22:52.780Z,5.00
2018-07-13T10:25:20.481Z,4.50
2018-07-13T10:27:48.180Z,4.53
2018-07-13T10:30:15.985Z,4.70
2018-07-13T10:32:44.324Z,4.97
2018-07-13T10:35:12.015Z,4.77
2018-07-13T10:37:40.750Z,4.70
2018-07-13T10:40:08.386Z,4.87
2018-07-13T10:42:35.997Z,4.90
2018-07-13T10:45:03.877Z,4.73
2018-07-13T10:47:31.544Z,5.10
2018-07-13T10:49:59.173Z,5.17
2018-07-13T10:52:26.857Z,4.60
2018-07-13T10:54:54.500Z,5.03
2018-07-13T10:57:22.187Z,4.33
2018-07-13T10:59:49.847Z,5.00
2018-07-13T11:02:17.476Z,4.63
2018-07-13T11:04:45.657Z,4.90
2018-07-13T11:07:13.261Z,4.60
2018-07-13T11:09:40.971Z,4.67
2018-07-13T11:12:08.712Z,4.13
2018-07-13T11:14:36.414Z,4.03
2018-07-13T11:17:04.276Z,4.57
2018-07-13T11:19:31.855Z,4.50
2018-07-13T11:21:59.501Z,3.67
2018-07-13T11:24:27.310Z,4.20
2018-07-13T11:26:54.897Z,4.40
2018-07-13T11:29:22.514Z,3.83
2018-07-13T11:31:50.200Z,4.00
2018-07-13T11:34:17.794Z,4.50
2018-07-13T11:36:45.429Z,3.80
2018-07-13T11:39:13.036Z,4.53
2018-07-13T11:41:40.711Z,4.20
2018-07-13T11:44:08.371Z,3.67
2018-07-13T11:46:35.946Z,4.20
2018-07-13T11:49:03.609Z,4.70
2018-07-13T11:51:31.243Z,4.60
2018-07-13T11:53:58.995Z,4.80
2018-07-13T11:56:26.925Z,5.07
2018-07-13T11:58:54.553Z,5.13
2018-07-13T12:01:22.215Z,5.00
2018-07-13T12:03:49.841Z,5.23
2018-07-13T12:06:17.471Z,5.07
2018-07-13T12:08:45.072Z,4.90
2018-07-13T12:11:12.699Z,4.43
2018-07-13T12:13:40.291Z,4.67
2018-07-13T12:16:07.906Z,4.80
2018-07-13T12:18:35.550Z,4.70
2018-07-13T12:21:03.220Z,4.50
2018-07-13T12:23:30.862Z,3.80
2018-07-13T12:25:58.517Z,4.67
2018-07-13T12:28:26.181Z,4.57
2018-07-13T12:30:53.856Z,4.37
2018-07-13T12:33:21.491Z,3.97
2018-07-13T12:35:49.083Z,4.90
2018-07-13T12:38:16.753Z,4.63
2018-07-13T12:40:44.393Z,5.00
2018-07-13T12:43:12.065Z,4.70
2018-07-13T12:45:39.717Z,4.77
2018-07-13T12:48:07.340Z,3.97
2018-07-13T12:50:34.967Z,4.97
2018-07-13T12:53:02.603Z,4.30
2018-07-13T12:55:30.314Z,5.37
2018-07-13T12:57:58.245Z,4.33
2018-07-13T13:00:25.897Z,4.73
2018-07-13T13:02:53.570Z,4.83
2018-07-13T13:05:21.240Z,4.80
2018-07-13T13:07:48.891Z,4.87
2018-07-13T13:10:16.595Z,4.60
2018-07-13T13:12:44.320Z,4.77
2018-07-13T13:15:12.003Z,4.60
2018-07-13T13:17:39.625Z,4.60
2018-07-13T13:20:07.325Z,4.77
2018-07-13T13:22:35.310Z,4.90
2018-07-13T13:25:02.947Z,4.90
2018-07-13T13:27:30.574Z,5.07
2018-07-13T13:29:58.190Z,5.47
2018-07-13T13:32:26.022Z,4.47
2018-07-13T13:34:53.936Z,4.43
2018-07-13T13:37:21.563Z,4.10
2018-07-13T13:39:49.224Z,4.70
2018-07-13T13:42:16.905Z,4.60
2018-07-13T13:44:44.957Z,4.00
2018-07-13T13:47:12.623Z,4.47
2018-07-13T13:49:40.284Z,4.40
2018-07-13T13:52:07.933Z,4.30
2018-07-13T13:54:35.525Z,4.20
2018-07-13T13:57:03.216Z,4.90
2018-07-13T13:59:30.851Z,4.33
2018-07-13T14:01:58.460Z,4.00
2018-07-13T14:04:26.092Z,4.20
2018-07-13T14:06:53.725Z,3.87
2018-07-13T14:09:21.435Z,3.87
2018-07-13T14:11:49.048Z,3.80
2018-07-13T14:14:16.693Z,4.23
2018-07-13T14:16:44.385Z,4.17
2018-07-13T14:19:12.003Z,4.70
2018-07-13T14:21:39.674Z,4.73
2018-07-13T14:24:07.631Z,4.67
2018-07-13T14:26:35.225Z,4.57
2018-07-13T14:29:03.144Z,4.10
2018-07-13T14:31:30.745Z,4.03
2018-07-13T14:33:58.413Z,3.83
2018-07-13T14:36:26.022Z,3.93
2018-07-13T14:38:53.709Z,3.63
2018-07-13T14:41:21.313Z,4.13
2018-07-13T14:43:48.967Z,4.33
2018-07-13T14:46:16.648Z,4.10
2018-07-13T14:48:44.296Z,3.63
2018-07-13T14:51:11.915Z,3.97
2018-07-13T14:53:39.621Z,3.80
2018-07-13T14:56:07.270Z,3.90
2018-07-13T14:58:34.881Z,4.03
2018-07-13T15:01:02.472Z,3.87
2018-07-13T15:03:30.062Z,4.13
2018-07-13T15:05:57.800Z,4.10
2018-07-13T15:08:25.331Z,4.23
2018-07-13T15:10:52.900Z,4.30
2018-07-13T15:13:20.488Z,4.87
2018-07-13T15:15:48.303Z,4.40
2018-07-13T15:18:15.941Z,4.40
2018-07-13T15:20:43.521Z,4.57
2018-07-13T15:23:11.077Z,4.97
2018-07-13T15:25:38.651Z,4.50
2018-07-13T15:28:06.209Z,4.17
2018-07-13T15:30:33.823Z,4.47
2018-07-13T15:33:01.725Z,4.57
2018-07-13T15:35:29.312Z,4.53
2018-07-13T15:37:56.928Z,4.77
2018-07-13T15:40:24.494Z,4.57
2018-07-13T15:42:52.137Z,4.07
2018-07-13T15:45:19.746Z,3.90
2018-07-13T15:47:48.264Z,4.10
2018-07-13T15:50:15.848Z,3.77
2018-07-13T15:52:43.497Z,3.87
2018-07-13T15:55:11.101Z,3.77
2018-07-13T15:57:38.755Z,3.80
2018-07-13T16:00:06.397Z,3.80
2018-07-13T16:02:33.967Z,3.93
2018-07-13T16:05:01.516Z,3.90
2018-07-13T16:07:29.093Z,3.37
2018-07-13T16:09:56.725Z,3.90
2018-07-13T16:12:24.342Z,4.00
2018-07-13T16:14:51.992Z,3.53
2018-07-13T16:17:19.597Z,4.03
2018-07-13T16:19:47.249Z,3.60
2018-07-13T16:22:14.819Z,3.87
2018-07-13T16:24:42.385Z,3.97
2018-07-13T16:27:09.975Z,4.60
2018-07-13T16:29:37.606Z,3.77
2018-07-13T16:32:05.244Z,4.17
2018-07-13T16:34:32.852Z,3.87
2018-07-13T16:37:00.492Z,3.70
2018-07-13T16:39:28.112Z,3.87
2018-07-13T16:41:55.689Z,3.80
2018-07-13T16:44:23.757Z,5.03
2018-07-13T16:46:51.388Z,3.50
2018-07-13T16:49:18.967Z,3.77
2018-07-13T16:51:46.560Z,4.47
2018-07-13T16:54:14.153Z,4.77
2018-07-13T16:56:41.855Z,4.07
2018-07-13T16:59:09.414Z,4.50
2018-07-13T17:01:37.017Z,4.40
2018-07-13T17:04:04.708Z,3.67
2018-07-13T17:06:32.287Z,4.10
2018-07-13T17:08:59.916Z,4.00
2018-07-13T17:11:27.532Z,4.10
2018-07-13T17:13:55.135Z,3.83
2018-07-13T17:16:22.737Z,4.30
2018-07-13T17:18:50.360Z,4.23
2018-07-13T17:21:17.940Z,4.80
2018-07-13T17:23:45.526Z,4.77
2018-07-13T17:26:13.170Z,4.80
2018-07-13T17:28:40.700Z,4.67
2018-07-13T17:31:08.279Z,4.60
2018-07-13T17:33:35.874Z,4.50
2018-07-13T17:36:03.473Z,5.10
2018-07-13T17:38:31.064Z,4.30
2018-07-13T17:40:58.680Z,4.70
2018-07-13T17:43:26.276Z,4.53
2018-07-13T17:45:53.852Z,5.53
2018-07-13T17:48:21.436Z,4.60
2018-07-13T17:50:49.050Z,4.80
2018-07-13T17:53:16.730Z,4.60
2018-07-13T17:55:44.308Z,4.53
2018-07-13T17:58:11.935Z,4.60
2018-07-13T18:00:39.618Z,5.53
2018-07-13T18:03:07.173Z,4.20
2018-07-13T18:05:35.207Z,4.97
2018-07-13T18:08:02.785Z,5.10
2018-07-13T18:10:30.405Z,5.70
2018-07-13T18:12:58.144Z,4.77
2018-07-13T18:15:25.656Z,5.17
2018-07-13T18:17:53.237Z,4.87
2018-07-13T18:20:20.912Z,4.80
2018-07-13T18:22:48.601Z,5.37
2018-07-13T18:25:16.176Z,5.80
2018-07-13T18:27:43.797Z,5.83
2018-07-13T18:30:11.457Z,5.70
2018-07-13T18:32:39.115Z,5.50
2018-07-13T18:35:06.749Z,5.83
2018-07-13T18:37:34.401Z,5.60
2018-07-13T18:40:01.999Z,5.43
2018-07-13T18:42:29.750Z,5.07
2018-07-13T18:44:57.349Z,5.50
2018-07-13T18:47:24.972Z,5.60
2018-07-13T18:49:52.641Z,5.57
2018-07-13T18:52:20.264Z,4.83
2018-07-13T18:54:47.898Z,5.10
2018-07-13T18:57:15.513Z,5.90
2018-07-13T18:59:43.477Z,5.63
2018-07-13T19:02:11.284Z,5.97
2018-07-13T19:04:38.919Z,5.93
2018-07-13T19:07:06.621Z,5.37
2018-07-13T19:09:34.278Z,5.90
2018-07-13T19:12:01.936Z,5.43
2018-07-13T19:14:29.845Z,5.37
2018-07-13T19:16:57.569Z,5.90
2018-07-13T19:19:25.356Z,5.90
2018-07-13T19:21:52.966Z,5.50
2018-07-13T19:24:20.588Z,5.70
2018-07-13T19:26:48.177Z,6.27
2018-07-13T19:29:15.860Z,6.37
2018-07-13T19:31:43.481Z,6.37
2018-07-13T19:34:11.188Z,6.13
2018-07-13T19:36:38.853Z,6.90
2018-07-13T19:39:06.813Z,6.50
2018-07-13T19:41:34.472Z,6.70
2018-07-13T19:44:02.102Z,6.77
2018-07-13T19:46:29.756Z,6.63
2018-07-13T19:48:57.370Z,6.10
2018-07-13T19:51:25.035Z,6.17
2018-07-13T19:53:52.633Z,6.53
2018-07-13T19:56:20.407Z,6.47
2018-07-13T19:58:48.009Z,7.40
2018-07-13T20:01:15.664Z,7.03
2018-07-13T20:03:43.376Z,7.03
2018-07-13T20:06:10.954Z,6.40
2018-07-13T20:08:38.675Z,6.47
2018-07-13T20:11:06.350Z,6.50
2018-07-13T20:13:33.981Z,6.87
2018-07-13T20:16:01.578Z,7.67
2018-07-13T20:18:29.200Z,7.03
2018-07-13T20:20:56.895Z,6.43
2018-07-13T20:23:24.598Z,6.53
2018-07-13T20:25:52.209Z,6.37
2018-07-13T20:28:19.861Z,7.40
2018-07-13T20:30:47.478Z,7.10
2018-07-13T20:33:15.135Z,7.43
2018-07-13T20:35:42.815Z,7.60
2018-07-13T20:38:10.435Z,6.97
2018-07-13T20:40:38.190Z,7.50
2018-07-13T20:43:06.269Z,7.47
2018-07-13T20:45:33.955Z,7.00
2018-07-13T20:51:11.235Z,7.33
2018-07-13T20:53:38.858Z,6.63
2018-07-13T20:56:07.908Z,7.27
2018-07-13T20:58:35.850Z,7.90
2018-07-13T21:01:03.512Z,7.00
2018-07-13T21:03:31.118Z,6.63
2018-07-13T21:05:58.769Z,7.57
2018-07-13T21:08:26.343Z,7.00
2018-07-13T21:10:53.985Z,7.67
2018-07-13T21:13:21.630Z,6.77
2018-07-13T21:15:49.275Z,7.23
2018-07-13T21:18:16.910Z,7.43
2018-07-13T21:20:44.667Z,8.57
2018-07-13T21:23:12.252Z,8.20
2018-07-13T21:25:39.872Z,8.13
2018-07-13T21:28:07.736Z,8.07
2018-07-13T21:30:35.358Z,7.20
2018-07-13T21:33:03.021Z,7.37
2018-07-13T21:35:30.704Z,7.80
2018-07-13T21:37:58.379Z,7.93
2018-07-13T21:40:26.030Z,7.93
2018-07-13T21:42:53.651Z,8.20
2018-07-13T21:45:21.274Z,8.00
2018-07-13T21:47:49.212Z,7.23
2018-07-13T21:50:16.892Z,8.03
2018-07-13T21:52:44.532Z,8.30
2018-07-13T21:55:12.162Z,8.07
2018-07-13T21:57:39.796Z,7.70
2018-07-13T22:00:07.542Z,8.00
2018-07-13T22:02:35.294Z,8.13
2018-07-13T22:05:02.849Z,7.77
2018-07-13T22:07:30.477Z,7.97
2018-07-13T22:09:58.147Z,7.70
2018-07-13T22:12:25.855Z,8.00
2018-07-13T22:14:53.509Z,8.20
2018-07-13T22:17:21.162Z,7.43
2018-07-13T22:19:48.820Z,7.60
2018-07-13T22:22:16.481Z,8.00
2018-07-13T22:24:44.168Z,7.70
2018-07-13T22:27:11.843Z,7.03
2018-07-13T22:29:39.481Z,7.90
2018-07-13T22:32:07.145Z,8.30
2018-07-13T22:34:34.739Z,9.60
2018-07-13T22:37:02.361Z,8.00
2018-07-13T22:39:29.989Z,7.50
2018-07-13T22:41:57.698Z,8.67
2018-07-13T22:44:25.384Z,7.57
2018-07-13T22:46:52.977Z,7.73
2018-07-13T22:49:20.589Z,7.70
2018-07-13T22:51:48.244Z,8.50
2018-07-13T22:54:15.885Z,7.33
2018-07-13T22:56:43.554Z,7.50
2018-07-13T22:59:11.307Z,7.60
2018-07-13T23:01:38.976Z,7.70
2018-07-13T23:04:06.888Z,7.57
2018-07-13T23:06:34.507Z,7.60
2018-07-13T23:09:02.270Z,8.10
2018-07-13T23:11:29.957Z,7.33
2018-07-13T23:13:57.586Z,6.40
2018-07-13T23:16:25.261Z,7.37
2018-07-13T23:18:52.934Z,6.57
2018-07-13T23:21:20.537Z,7.30
2018-07-13T23:23:48.113Z,7.53
2018-07-13T23:26:15.756Z,6.60
2018-07-13T23:28:43.563Z,7.37
2018-07-13T23:31:11.174Z,7.40
2018-07-13T23:33:38.837Z,7.93
2018-07-13T23:36:06.486Z,7.33
2018-07-13T23:38:34.100Z,7.70
2018-07-13T23:41:01.691Z,7.67
2018-07-13T23:43:29.318Z,8.40
2018-07-13T23:45:56.916Z,7.90
2018-07-13T23:48:24.562Z,7.73
2018-07-13T23:50:52.169Z,7.57
2018-07-13T23:53:19.828Z,8.53
2018-07-13T23:55:47.412Z,8.20
2018-07-13T23:58:15.042Z,8.33
